sensor_id;sensor_type;location;lat;lon;timestamp;pressure;altitude;pressure_sealevel;temperature;humidity
19594;BME280;9944;48.240;16.478;2022-12-10T00:02:55;98481.91;;;2.29;87.09
19594;BME280;9944;48.240;16.478;2022-12-10T00:06:58;98481.91;;;2.30;87.25
19594;BME280;9944;48.240;16.478;2022-12-10T00:11:04;98474.97;;;2.31;87.26
19594;BME280;9944;48.240;16.478;2022-12-10T00:15:08;98474.13;;;2.35;87.50
19594;BME280;9944;48.240;16.478;2022-12-10T00:19:12;98474.16;;;2.38;87.45
19594;BME280;9944;48.240;16.478;2022-12-10T00:23:15;98468.09;;;2.38;87.29
19594;BME280;9944;48.240;16.478;2022-12-10T00:27:24;98473.31;;;2.38;87.32
19594;BME280;9944;48.240;16.478;2022-12-10T00:31:28;98482.81;;;2.34;87.17
19594;BME280;9944;48.240;16.478;2022-12-10T00:35:35;98476.75;;;2.35;87.29
19594;BME280;9944;48.240;16.478;2022-12-10T00:39:38;98481.97;;;2.37;87.20
19594;BME280;9944;48.240;16.478;2022-12-10T00:43:41;98484.56;;;2.38;87.45
19594;BME280;9944;48.240;16.478;2022-12-10T00:47:45;98488.03;;;2.37;87.22
19594;BME280;9944;48.240;16.478;2022-12-10T00:51:50;98489.81;;;2.40;87.16
19594;BME280;9944;48.240;16.478;2022-12-10T00:55:53;98503.66;;;2.37;87.07
19594;BME280;9944;48.240;16.478;2022-12-10T00:59:57;98510.59;;;2.35;86.95
19594;BME280;9944;48.240;16.478;2022-12-10T01:04:02;98517.56;;;2.36;87.24
19594;BME280;9944;48.240;16.478;2022-12-10T01:08:08;98520.13;;;2.33;86.87
19594;BME280;9944;48.240;16.478;2022-12-10T01:12:11;98522.72;;;2.33;86.89
19594;BME280;9944;48.240;16.478;2022-12-10T01:16:17;98504.50;;;2.33;86.76
19594;BME280;9944;48.240;16.478;2022-12-10T01:20:20;98501.00;;;2.29;86.76
19594;BME280;9944;48.240;16.478;2022-12-10T01:24:26;98507.09;;;2.33;86.66
19594;BME280;9944;48.240;16.478;2022-12-10T01:28:30;98515.75;;;2.29;86.76
19594;BME280;9944;48.240;16.478;2022-12-10T01:32:34;98511.44;;;2.31;86.74
19594;BME280;9944;48.240;16.478;2022-12-10T01:36:38;98503.63;;;2.36;86.93
19594;BME280;9944;48.240;16.478;2022-12-10T01:40:46;98517.53;;;2.33;87.04
19594;BME280;9944;48.240;16.478;2022-12-10T01:44:59;98528.88;;;2.40;87.25
19594;BME280;9944;48.240;16.478;2022-12-10T01:49:04;98520.16;;;2.39;86.66
19594;BME280;9944;48.240;16.478;2022-12-10T01:53:09;98522.78;;;2.41;86.67
19594;BME280;9944;48.240;16.478;2022-12-10T01:57:16;98513.22;;;2.38;86.70
19594;BME280;9944;48.240;16.478;2022-12-10T02:01:25;98508.91;;;2.40;86.59
19594;BME280;9944;48.240;16.478;2022-12-10T02:05:32;98517.63;;;2.45;86.62
19594;BME280;9944;48.240;16.478;2022-12-10T02:09:41;98535.78;;;2.39;86.27
19594;BME280;9944;48.240;16.478;2022-12-10T02:13:55;98540.13;;;2.39;86.06
19594;BME280;9944;48.240;16.478;2022-12-10T02:18:04;98533.22;;;2.42;86.17
19594;BME280;9944;48.240;16.478;2022-12-10T02:22:11;98534.97;;;2.43;86.54
19594;BME280;9944;48.240;16.478;2022-12-10T02:26:20;98541.94;;;2.47;86.64
19594;BME280;9944;48.240;16.478;2022-12-10T02:30:27;98548.03;;;2.48;86.52
19594;BME280;9944;48.240;16.478;2022-12-10T02:34:33;98535.88;;;2.48;86.48
19594;BME280;9944;48.240;16.478;2022-12-10T02:38:40;98517.63;;;2.45;86.18
19594;BME280;9944;48.240;16.478;2022-12-10T02:42:48;98543.63;;;2.41;86.21
19594;BME280;9944;48.240;16.478;2022-12-10T02:46:56;98547.97;;;2.42;86.50
19594;BME280;9944;48.240;16.478;2022-12-10T02:51:07;98545.44;;;2.48;86.72
19594;BME280;9944;48.240;16.478;2022-12-10T02:55:13;98548.88;;;2.45;86.42
19594;BME280;9944;48.240;16.478;2022-12-10T02:59:26;98561.03;;;2.49;86.61
19594;BME280;9944;48.240;16.478;2022-12-10T03:03:40;98559.34;;;2.51;86.65
19594;BME280;9944;48.240;16.478;2022-12-10T03:07:55;98562.84;;;2.53;86.81
19594;BME280;9944;48.240;16.478;2022-12-10T03:12:07;98554.19;;;2.58;86.36
19594;BME280;9944;48.240;16.478;2022-12-10T03:16:15;98543.72;;;2.55;86.18
19594;BME280;9944;48.240;16.478;2022-12-10T03:20:22;98543.72;;;2.50;85.96
19594;BME280;9944;48.240;16.478;2022-12-10T03:24:27;98538.47;;;2.48;85.46
19594;BME280;9944;48.240;16.478;2022-12-10T03:28:32;98544.53;;;2.46;85.35
19594;BME280;9944;48.240;16.478;2022-12-10T03:32:37;98538.41;;;2.42;85.20
19594;BME280;9944;48.240;16.478;2022-12-10T03:36:42;98539.25;;;2.37;85.36
19594;BME280;9944;48.240;16.478;2022-12-10T03:40:46;98547.06;;;2.38;85.57
19594;BME280;9944;48.240;16.478;2022-12-10T03:44:50;98552.31;;;2.41;85.75
19594;BME280;9944;48.240;16.478;2022-12-10T03:48:54;98553.19;;;2.42;85.60
19594;BME280;9944;48.240;16.478;2022-12-10T03:52:58;98558.34;;;2.39;85.59
19594;BME280;9944;48.240;16.478;2022-12-10T03:57:01;98580.13;;;2.45;86.00
19594;BME280;9944;48.240;16.478;2022-12-10T04:01:04;98577.56;;;2.53;85.73
19594;BME280;9944;48.240;16.478;2022-12-10T04:05:08;98594.94;;;2.52;85.91
19594;BME280;9944;48.240;16.478;2022-12-10T04:09:14;98615.00;;;2.63;86.40
19594;BME280;9944;48.240;16.478;2022-12-10T04:13:17;98617.69;;;2.70;86.51
19594;BME280;9944;48.240;16.478;2022-12-10T04:17:37;98606.44;;;2.76;86.22
19594;BME280;9944;48.240;16.478;2022-12-10T04:21:42;98604.69;;;2.75;85.92
19594;BME280;9944;48.240;16.478;2022-12-10T04:26:06;98597.75;;;2.77;85.63
19594;BME280;9944;48.240;16.478;2022-12-10T04:30:26;98611.56;;;2.67;85.26
19594;BME280;9944;48.240;16.478;2022-12-10T04:34:29;98610.72;;;2.69;85.71
19594;BME280;9944;48.240;16.478;2022-12-10T04:38:32;98604.66;;;2.69;85.39
19594;BME280;9944;48.240;16.478;2022-12-10T04:42:37;98604.66;;;2.69;85.48
19594;BME280;9944;48.240;16.478;2022-12-10T04:46:40;98605.47;;;2.66;85.04
19594;BME280;9944;48.240;16.478;2022-12-10T04:50:42;98609.78;;;2.63;84.84
19594;BME280;9944;48.240;16.478;2022-12-10T04:54:45;98613.28;;;2.62;84.81
19594;BME280;9944;48.240;16.478;2022-12-10T04:58:50;98598.50;;;2.62;85.07
19594;BME280;9944;48.240;16.478;2022-12-10T05:02:53;98596.75;;;2.60;84.66
19594;BME280;9944;48.240;16.478;2022-12-10T05:06:56;98585.44;;;2.58;84.87
19594;BME280;9944;48.240;16.478;2022-12-10T05:11:00;98599.34;;;2.60;84.88
19594;BME280;9944;48.240;16.478;2022-12-10T05:15:07;98595.03;;;2.60;84.97
19594;BME280;9944;48.240;16.478;2022-12-10T05:19:10;98583.75;;;2.63;85.08
19594;BME280;9944;48.240;16.478;2022-12-10T05:23:14;98582.00;;;2.63;85.25
19594;BME280;9944;48.240;16.478;2022-12-10T05:27:32;98589.81;;;2.63;85.19
19594;BME280;9944;48.240;16.478;2022-12-10T05:31:37;98590.72;;;2.65;85.05
19594;BME280;9944;48.240;16.478;2022-12-10T05:35:40;98577.63;;;2.59;84.79
19594;BME280;9944;48.240;16.478;2022-12-10T05:39:43;98584.59;;;2.60;84.75
19594;BME280;9944;48.240;16.478;2022-12-10T05:43:46;98589.81;;;2.59;84.90
19594;BME280;9944;48.240;16.478;2022-12-10T05:47:51;98591.56;;;2.63;85.25
19594;BME280;9944;48.240;16.478;2022-12-10T05:51:54;98595.94;;;2.64;84.86
19594;BME280;9944;48.240;16.478;2022-12-10T05:56:01;98605.44;;;2.60;84.63
19594;BME280;9944;48.240;16.478;2022-12-10T06:00:05;98609.78;;;2.63;84.27
19594;BME280;9944;48.240;16.478;2022-12-10T06:04:14;98619.31;;;2.58;84.25
19594;BME280;9944;48.240;16.478;2022-12-10T06:08:17;98620.22;;;2.63;84.67
19594;BME280;9944;48.240;16.478;2022-12-10T06:12:20;98630.69;;;2.66;84.43
19594;BME280;9944;48.240;16.478;2022-12-10T06:16:24;98645.44;;;2.67;84.38
19594;BME280;9944;48.240;16.478;2022-12-10T06:20:28;98657.56;;;2.65;84.35
19594;BME280;9944;48.240;16.478;2022-12-10T06:24:31;98643.75;;;2.69;84.45
19594;BME280;9944;48.240;16.478;2022-12-10T06:28:34;98638.53;;;2.69;84.35
19594;BME280;9944;48.240;16.478;2022-12-10T06:32:37;98649.81;;;2.71;84.40
19594;BME280;9944;48.240;16.478;2022-12-10T06:36:42;98662.00;;;2.75;84.63
19594;BME280;9944;48.240;16.478;2022-12-10T06:40:45;98672.47;;;2.78;84.43
19594;BME280;9944;48.240;16.478;2022-12-10T06:44:48;98677.69;;;2.80;84.41
19594;BME280;9944;48.240;16.478;2022-12-10T06:48:51;98671.66;;;2.84;84.30
19594;BME280;9944;48.240;16.478;2022-12-10T06:52:55;98658.63;;;2.84;84.28
19594;BME280;9944;48.240;16.478;2022-12-10T06:56:58;98656.91;;;2.84;84.14
19594;BME280;9944;48.240;16.478;2022-12-10T07:01:03;98652.53;;;2.83;83.79
19594;BME280;9944;48.240;16.478;2022-12-10T07:05:07;98658.59;;;2.79;83.67
19594;BME280;9944;48.240;16.478;2022-12-10T07:09:11;98646.38;;;2.75;83.19
19594;BME280;9944;48.240;16.478;2022-12-10T07:13:14;98651.56;;;2.72;83.04
19594;BME280;9944;48.240;16.478;2022-12-10T07:17:17;98652.38;;;2.66;83.29
19594;BME280;9944;48.240;16.478;2022-12-10T07:21:22;98656.72;;;2.64;83.33
19594;BME280;9944;48.240;16.478;2022-12-10T07:25:27;98654.09;;;2.64;83.16
19594;BME280;9944;48.240;16.478;2022-12-10T07:29:31;98663.69;;;2.65;83.42
19594;BME280;9944;48.240;16.478;2022-12-10T07:33:35;98644.59;;;2.68;83.69
19594;BME280;9944;48.240;16.478;2022-12-10T07:37:38;98636.72;;;2.65;82.89
19594;BME280;9944;48.240;16.478;2022-12-10T07:41:43;98632.38;;;2.61;82.82
19594;BME280;9944;48.240;16.478;2022-12-10T07:45:46;98621.00;;;2.52;82.45
19594;BME280;9944;48.240;16.478;2022-12-10T07:49:49;98627.06;;;2.50;82.74
19594;BME280;9944;48.240;16.478;2022-12-10T07:53:53;98632.28;;;2.53;83.04
19594;BME280;9944;48.240;16.478;2022-12-10T07:57:57;98612.28;;;2.49;82.69
19594;BME280;9944;48.240;16.478;2022-12-10T08:02:00;98604.44;;;2.46;82.60
19594;BME280;9944;48.240;16.478;2022-12-10T08:06:11;98627.00;;;2.45;82.76
19594;BME280;9944;48.240;16.478;2022-12-10T08:10:15;98626.19;;;2.52;82.99
19594;BME280;9944;48.240;16.478;2022-12-10T08:14:19;98628.78;;;2.49;83.00
19594;BME280;9944;48.240;16.478;2022-12-10T08:18:22;98631.38;;;2.51;83.10
19594;BME280;9944;48.240;16.478;2022-12-10T08:22:25;98627.97;;;2.55;83.24
19594;BME280;9944;48.240;16.478;2022-12-10T08:26:31;98625.41;;;2.60;83.26
19594;BME280;9944;48.240;16.478;2022-12-10T08:30:35;98628.91;;;2.62;83.22
19594;BME280;9944;48.240;16.478;2022-12-10T08:34:39;98634.97;;;2.61;83.39
19594;BME280;9944;48.240;16.478;2022-12-10T08:38:42;98634.06;;;2.57;82.68
19594;BME280;9944;48.240;16.478;2022-12-10T08:42:46;98643.56;;;2.52;82.42
19594;BME280;9944;48.240;16.478;2022-12-10T08:46:56;98649.66;;;2.52;82.71
19594;BME280;9944;48.240;16.478;2022-12-10T08:50:59;98646.13;;;2.47;82.07
19594;BME280;9944;48.240;16.478;2022-12-10T08:55:03;98653.03;;;2.45;82.16
19594;BME280;9944;48.240;16.478;2022-12-10T08:59:06;98652.19;;;2.45;82.11
19594;BME280;9944;48.240;16.478;2022-12-10T09:03:11;98658.19;;;2.39;81.27
19594;BME280;9944;48.240;16.478;2022-12-10T09:07:14;98668.59;;;2.39;81.82
19594;BME280;9944;48.240;16.478;2022-12-10T09:11:19;98667.69;;;2.36;81.39
19594;BME280;9944;48.240;16.478;2022-12-10T09:15:23;98658.19;;;2.39;81.40
19594;BME280;9944;48.240;16.478;2022-12-10T09:19:28;98665.19;;;2.43;81.23
19594;BME280;9944;48.240;16.478;2022-12-10T09:23:31;98664.31;;;2.43;81.13
19594;BME280;9944;48.240;16.478;2022-12-10T09:27:36;98671.22;;;2.41;81.01
19594;BME280;9944;48.240;16.478;2022-12-10T09:31:39;98656.50;;;2.44;80.99
19594;BME280;9944;48.240;16.478;2022-12-10T09:35:44;98645.22;;;2.44;80.94
19594;BME280;9944;48.240;16.478;2022-12-10T09:39:47;98637.47;;;2.48;80.81
19594;BME280;9944;48.240;16.478;2022-12-10T09:43:53;98646.13;;;2.47;80.73
19594;BME280;9944;48.240;16.478;2022-12-10T09:48:01;98654.81;;;2.49;80.34
19594;BME280;9944;48.240;16.478;2022-12-10T09:52:12;98654.81;;;2.49;80.06
19594;BME280;9944;48.240;16.478;2022-12-10T09:56:21;98659.13;;;2.47;79.67
19594;BME280;9944;48.240;16.478;2022-12-10T10:00:30;98664.34;;;2.47;79.38
19594;BME280;9944;48.240;16.478;2022-12-10T10:04:35;98665.25;;;2.48;80.15
19594;BME280;9944;48.240;16.478;2022-12-10T10:08:42;98660.09;;;2.54;80.34
19594;BME280;9944;48.240;16.478;2022-12-10T10:12:46;98653.19;;;2.61;80.53
19594;BME280;9944;48.240;16.478;2022-12-10T10:16:52;98645.44;;;2.65;80.28
19594;BME280;9944;48.240;16.478;2022-12-10T10:20:57;98645.44;;;2.68;79.16
19594;BME280;9944;48.240;16.478;2022-12-10T10:25:02;98640.22;;;2.67;79.40
19594;BME280;9944;48.240;16.478;2022-12-10T10:29:08;98640.25;;;2.70;79.42
19594;BME280;9944;48.240;16.478;2022-12-10T10:33:13;98646.41;;;2.78;79.67
19594;BME280;9944;48.240;16.478;2022-12-10T10:37:20;98638.66;;;2.87;80.01
19594;BME280;9944;48.240;16.478;2022-12-10T10:41:25;98636.94;;;2.89;79.64
19594;BME280;9944;48.240;16.478;2022-12-10T10:45:32;98627.41;;;2.95;79.35
19594;BME280;9944;48.240;16.478;2022-12-10T10:49:43;98630.91;;;2.92;78.78
19594;BME280;9944;48.240;16.478;2022-12-10T10:53:47;98626.50;;;2.86;78.72
19594;BME280;9944;48.240;16.478;2022-12-10T10:57:53;98621.28;;;2.85;78.61
19594;BME280;9944;48.240;16.478;2022-12-10T11:01:59;98606.47;;;2.82;77.91
19594;BME280;9944;48.240;16.478;2022-12-10T11:06:06;98603.84;;;2.78;78.45
19594;BME280;9944;48.240;16.478;2022-12-10T11:10:17;98594.31;;;2.81;78.94
19594;BME280;9944;48.240;16.478;2022-12-10T11:14:25;98583.94;;;2.84;78.02
19594;BME280;9944;48.240;16.478;2022-12-10T11:18:34;98594.31;;;2.81;78.17
19594;BME280;9944;48.240;16.478;2022-12-10T11:22:48;98575.22;;;2.79;78.14
19594;BME280;9944;48.240;16.478;2022-12-10T11:27:03;98579.50;;;2.74;78.06
19594;BME280;9944;48.240;16.478;2022-12-10T11:31:21;98585.56;;;2.73;78.50
19594;BME280;9944;48.240;16.478;2022-12-10T11:35:39;98575.19;;;2.76;78.79
19594;BME280;9944;48.240;16.478;2022-12-10T11:40:03;98573.38;;;2.72;78.75
19594;BME280;9944;48.240;16.478;2022-12-10T11:44:16;98562.06;;;2.67;78.80
19594;BME280;9944;48.240;16.478;2022-12-10T11:48:33;98562.91;;;2.63;78.67
19594;BME280;9944;48.240;16.478;2022-12-10T11:53:02;98559.38;;;2.58;78.22
19594;BME280;9944;48.240;16.478;2022-12-10T11:57:19;98562.88;;;2.60;78.38
19594;BME280;9944;48.240;16.478;2022-12-10T12:01:37;98565.47;;;2.58;78.69
19594;BME280;9944;48.240;16.478;2022-12-10T12:05:57;98565.50;;;2.61;78.43
19594;BME280;9944;48.240;16.478;2022-12-10T12:10:24;98578.56;;;2.66;78.32
19594;BME280;9944;48.240;16.478;2022-12-10T12:14:56;98573.34;;;2.66;78.15
19594;BME280;9944;48.240;16.478;2022-12-10T12:19:05;98562.97;;;2.69;77.80
19594;BME280;9944;48.240;16.478;2022-12-10T12:23:19;98562.91;;;2.64;77.50
19594;BME280;9944;48.240;16.478;2022-12-10T12:27:30;98572.44;;;2.59;77.34
19594;BME280;9944;48.240;16.478;2022-12-10T12:31:38;98577.66;;;2.62;77.75
19594;BME280;9944;48.240;16.478;2022-12-10T12:35:46;98565.59;;;2.70;78.39
19594;BME280;9944;48.240;16.478;2022-12-10T12:39:59;98556.00;;;2.68;77.04
19594;BME280;9944;48.240;16.478;2022-12-10T12:44:09;98549.03;;;2.64;77.41
19594;BME280;9944;48.240;16.478;2022-12-10T12:48:19;98548.16;;;2.62;77.30
19594;BME280;9944;48.240;16.478;2022-12-10T12:52:29;98546.38;;;2.59;77.43
19594;BME280;9944;48.240;16.478;2022-12-10T12:56:54;98554.22;;;2.61;77.70
19594;BME280;9944;48.240;16.478;2022-12-10T13:01:06;98560.31;;;2.64;77.33
19594;BME280;9944;48.240;16.478;2022-12-10T13:05:15;98565.53;;;2.64;78.17
19594;BME280;9944;48.240;16.478;2022-12-10T13:09:25;98571.59;;;2.65;77.64
19594;BME280;9944;48.240;16.478;2022-12-10T13:13:33;98562.91;;;2.64;77.47
19594;BME280;9944;48.240;16.478;2022-12-10T13:17:38;98568.97;;;2.63;77.39
19594;BME280;9944;48.240;16.478;2022-12-10T13:22:00;98578.56;;;2.66;77.92
19594;BME280;9944;48.240;16.478;2022-12-10T13:26:22;98583.78;;;2.67;77.41
19594;BME280;9944;48.240;16.478;2022-12-10T13:30:34;98594.16;;;2.63;77.57
19594;BME280;9944;48.240;16.478;2022-12-10T13:34:39;98606.34;;;2.64;78.11
19594;BME280;9944;48.240;16.478;2022-12-10T13:38:55;98595.06;;;2.66;78.12
19594;BME280;9944;48.240;16.478;2022-12-10T13:43:24;98589.00;;;2.66;78.38
19594;BME280;9944;48.240;16.478;2022-12-10T13:47:52;98580.31;;;2.68;78.16
19594;BME280;9944;48.240;16.478;2022-12-10T13:51:58;98587.25;;;2.68;77.94
19594;BME280;9944;48.240;16.478;2022-12-10T13:56:09;98589.00;;;2.66;78.50
19594;BME280;9944;48.240;16.478;2022-12-10T14:00:18;98587.25;;;2.68;78.40
19594;BME280;9944;48.240;16.478;2022-12-10T14:04:44;98591.59;;;2.67;78.43
19594;BME280;9944;48.240;16.478;2022-12-10T14:08:55;98589.84;;;2.65;78.32
19594;BME280;9944;48.240;16.478;2022-12-10T14:13:01;98575.94;;;2.64;78.40
19594;BME280;9944;48.240;16.478;2022-12-10T14:17:06;98577.69;;;2.64;78.57
19594;BME280;9944;48.240;16.478;2022-12-10T14:21:16;98585.50;;;2.64;78.87
19594;BME280;9944;48.240;16.478;2022-12-10T14:25:21;98585.50;;;2.64;78.43
19594;BME280;9944;48.240;16.478;2022-12-10T14:29:25;98580.28;;;2.62;78.53
19594;BME280;9944;48.240;16.478;2022-12-10T14:33:30;98584.59;;;2.59;78.55
19594;BME280;9944;48.240;16.478;2022-12-10T14:37:36;98593.28;;;2.61;78.53
19594;BME280;9944;48.240;16.478;2022-12-10T14:41:42;98588.06;;;2.61;78.99
19594;BME280;9944;48.240;16.478;2022-12-10T14:45:46;98590.69;;;2.61;78.97
19594;BME280;9944;48.240;16.478;2022-12-10T14:49:54;98582.88;;;2.62;79.22
19594;BME280;9944;48.240;16.478;2022-12-10T14:53:59;98577.66;;;2.62;79.28
19594;BME280;9944;48.240;16.478;2022-12-10T14:58:03;98583.75;;;2.63;79.12
19594;BME280;9944;48.240;16.478;2022-12-10T15:02:14;98576.75;;;2.56;78.61
19594;BME280;9944;48.240;16.478;2022-12-10T15:06:19;98568.94;;;2.56;78.83
19594;BME280;9944;48.240;16.478;2022-12-10T15:10:26;98579.38;;;2.57;79.14
19594;BME280;9944;48.240;16.478;2022-12-10T15:14:31;98578.53;;;2.63;79.41
19594;BME280;9944;48.240;16.478;2022-12-10T15:18:37;98577.69;;;2.64;79.30
19594;BME280;9944;48.240;16.478;2022-12-10T15:22:40;98568.13;;;2.63;79.27
19594;BME280;9944;48.240;16.478;2022-12-10T15:26:46;98562.94;;;2.66;79.53
19594;BME280;9944;48.240;16.478;2022-12-10T15:30:50;98569.84;;;2.62;79.45
19594;BME280;9944;48.240;16.478;2022-12-10T15:34:55;98563.72;;;2.56;79.82
19594;BME280;9944;48.240;16.478;2022-12-10T15:39:03;98570.63;;;2.50;79.90
19594;BME280;9944;48.240;16.478;2022-12-10T15:43:16;98579.28;;;2.49;80.38
19594;BME280;9944;48.240;16.478;2022-12-10T15:47:24;98581.00;;;2.47;80.91
19594;BME280;9944;48.240;16.478;2022-12-10T15:51:27;98582.78;;;2.50;80.95
19594;BME280;9944;48.240;16.478;2022-12-10T15:55:30;98573.22;;;2.50;81.09
19594;BME280;9944;48.240;16.478;2022-12-10T15:59:35;98581.88;;;2.46;80.87
19594;BME280;9944;48.240;16.478;2022-12-10T16:03:38;98578.38;;;2.46;80.91
19594;BME280;9944;48.240;16.478;2022-12-10T16:07:43;98569.72;;;2.45;80.86
19594;BME280;9944;48.240;16.478;2022-12-10T16:11:46;98568.81;;;2.42;81.16
19594;BME280;9944;48.240;16.478;2022-12-10T16:15:52;98558.41;;;2.43;81.06
19594;BME280;9944;48.240;16.478;2022-12-10T16:19:56;98566.25;;;2.46;81.27
19594;BME280;9944;48.240;16.478;2022-12-10T16:23:59;98563.63;;;2.45;81.15
19594;BME280;9944;48.240;16.478;2022-12-10T16:28:02;98561.03;;;2.46;81.25
19594;BME280;9944;48.240;16.478;2022-12-10T16:32:07;98561.88;;;2.44;81.44
19594;BME280;9944;48.240;16.478;2022-12-10T16:36:11;98571.47;;;2.46;81.27
19594;BME280;9944;48.240;16.478;2022-12-10T16:40:15;98568.81;;;2.43;81.11
19594;BME280;9944;48.240;16.478;2022-12-10T16:44:18;98580.97;;;2.44;81.09
19594;BME280;9944;48.240;16.478;2022-12-10T16:48:23;98574.88;;;2.42;80.93
19594;BME280;9944;48.240;16.478;2022-12-10T16:52:26;98566.22;;;2.43;80.72
19594;BME280;9944;48.240;16.478;2022-12-10T16:56:30;98570.56;;;2.43;80.35
19594;BME280;9944;48.240;16.478;2022-12-10T17:00:33;98576.59;;;2.40;80.37
19594;BME280;9944;48.240;16.478;2022-12-10T17:04:37;98575.75;;;2.40;80.43
19594;BME280;9944;48.240;16.478;2022-12-10T17:08:40;98573.97;;;2.39;80.74
19594;BME280;9944;48.240;16.478;2022-12-10T17:12:43;98570.53;;;2.40;80.96
19594;BME280;9944;48.240;16.478;2022-12-10T17:16:48;98570.53;;;2.40;80.91
19594;BME280;9944;48.240;16.478;2022-12-10T17:20:53;98574.00;;;2.40;81.08
19594;BME280;9944;48.240;16.478;2022-12-10T17:24:56;98576.59;;;2.40;80.95
19594;BME280;9944;48.240;16.478;2022-12-10T17:29:02;98560.94;;;2.37;80.79
19594;BME280;9944;48.240;16.478;2022-12-10T17:33:06;98567.88;;;2.35;80.89
19594;BME280;9944;48.240;16.478;2022-12-10T17:37:12;98573.09;;;2.35;80.91
19594;BME280;9944;48.240;16.478;2022-12-10T17:41:16;98570.44;;;2.32;80.62
19594;BME280;9944;48.240;16.478;2022-12-10T17:45:19;98577.38;;;2.31;80.63
19594;BME280;9944;48.240;16.478;2022-12-10T17:49:23;98581.78;;;2.34;80.76
19594;BME280;9944;48.240;16.478;2022-12-10T17:53:27;98576.56;;;2.34;80.30
19594;BME280;9944;48.240;16.478;2022-12-10T17:57:30;98584.34;;;2.32;79.96
19594;BME280;9944;48.240;16.478;2022-12-10T18:01:33;98588.66;;;2.29;79.40
19594;BME280;9944;48.240;16.478;2022-12-10T18:05:37;98597.31;;;2.28;79.70
19594;BME280;9944;48.240;16.478;2022-12-10T18:09:41;98585.19;;;2.30;79.78
19594;BME280;9944;48.240;16.478;2022-12-10T18:13:44;98579.97;;;2.30;79.47
19594;BME280;9944;48.240;16.478;2022-12-10T18:17:48;98578.25;;;2.29;79.43
19594;BME280;9944;48.240;16.478;2022-12-10T18:21:52;98571.25;;;2.25;79.36
19594;BME280;9944;48.240;16.478;2022-12-10T18:25:57;98573.84;;;2.25;79.36
19594;BME280;9944;48.240;16.478;2022-12-10T18:30:00;98570.41;;;2.26;79.77
19594;BME280;9944;48.240;16.478;2022-12-10T18:34:06;98562.63;;;2.29;79.56
19594;BME280;9944;48.240;16.478;2022-12-10T18:38:11;98555.66;;;2.28;79.76
19594;BME280;9944;48.240;16.478;2022-12-10T18:42:16;98553.91;;;2.28;78.09
19594;BME280;9944;48.240;16.478;2022-12-10T18:46:22;98559.09;;;2.24;78.43
19594;BME280;9944;48.240;16.478;2022-12-10T18:50:28;98562.50;;;2.20;78.78
19594;BME280;9944;48.240;16.478;2022-12-10T18:54:31;98554.72;;;2.21;77.67
19594;BME280;9944;48.240;16.478;2022-12-10T18:58:36;98558.22;;;2.20;77.70
19594;BME280;9944;48.240;16.478;2022-12-10T19:02:39;98547.78;;;2.23;77.57
19594;BME280;9944;48.240;16.478;2022-12-10T19:06:42;98556.47;;;2.21;77.83
19594;BME280;9944;48.240;16.478;2022-12-10T19:10:46;98566.03;;;2.23;77.87
19594;BME280;9944;48.240;16.478;2022-12-10T19:14:50;98554.75;;;2.24;77.79
19594;BME280;9944;48.240;16.478;2022-12-10T19:18:53;98550.41;;;2.25;77.82
19594;BME280;9944;48.240;16.478;2022-12-10T19:22:58;98551.31;;;2.25;77.43
19594;BME280;9944;48.240;16.478;2022-12-10T19:27:02;98550.41;;;2.25;77.24
19594;BME280;9944;48.240;16.478;2022-12-10T19:31:07;98546.94;;;2.24;76.83
19594;BME280;9944;48.240;16.478;2022-12-10T19:35:11;98556.47;;;2.22;76.98
19594;BME280;9944;48.240;16.478;2022-12-10T19:39:16;98560.00;;;2.26;77.43
19594;BME280;9944;48.240;16.478;2022-12-10T19:43:20;98552.19;;;2.26;77.78
19594;BME280;9944;48.240;16.478;2022-12-10T19:47:24;98562.59;;;2.26;76.92
19594;BME280;9944;48.240;16.478;2022-12-10T19:51:28;98569.53;;;2.27;77.80
19594;BME280;9944;48.240;16.478;2022-12-10T19:55:31;98576.56;;;2.36;77.76
19594;BME280;9944;48.240;16.478;2022-12-10T19:59:34;98575.63;;;2.30;77.67
19594;BME280;9944;48.240;16.478;2022-12-10T20:03:38;98572.16;;;2.28;77.17
19594;BME280;9944;48.240;16.478;2022-12-10T20:07:42;98579.03;;;2.22;77.07
19594;BME280;9944;48.240;16.478;2022-12-10T20:11:45;98566.00;;;2.19;77.59
19594;BME280;9944;48.240;16.478;2022-12-10T20:15:48;98574.69;;;2.21;77.31
19594;BME280;9944;48.240;16.478;2022-12-10T20:19:53;98579.81;;;2.14;77.50
19594;BME280;9944;48.240;16.478;2022-12-10T20:23:56;98574.63;;;2.14;77.97
19594;BME280;9944;48.240;16.478;2022-12-10T20:28:03;98573.72;;;2.12;78.23
19594;BME280;9944;48.240;16.478;2022-12-10T20:32:09;98559.88;;;2.17;78.03
19594;BME280;9944;48.240;16.478;2022-12-10T20:36:16;98564.16;;;2.08;78.00
19594;BME280;9944;48.240;16.478;2022-12-10T20:40:22;98562.38;;;2.06;78.42
19594;BME280;9944;48.240;16.478;2022-12-10T20:44:34;98560.63;;;2.03;78.66
19594;BME280;9944;48.240;16.478;2022-12-10T20:48:37;98546.78;;;2.07;78.93
19594;BME280;9944;48.240;16.478;2022-12-10T20:52:41;98560.66;;;2.06;78.36
19594;BME280;9944;48.240;16.478;2022-12-10T20:56:44;98565.84;;;2.05;78.06
19594;BME280;9944;48.240;16.478;2022-12-10T21:00:47;98584.03;;;2.02;78.02
19594;BME280;9944;48.240;16.478;2022-12-10T21:04:51;98581.41;;;2.00;77.90
19594;BME280;9944;48.240;16.478;2022-12-10T21:08:55;98569.28;;;2.02;77.68
19594;BME280;9944;48.240;16.478;2022-12-10T21:12:58;98572.69;;;1.95;77.57
19594;BME280;9944;48.240;16.478;2022-12-10T21:17:02;98570.00;;;1.89;77.84
19594;BME280;9944;48.240;16.478;2022-12-10T21:21:05;98566.66;;;1.98;77.70
19594;BME280;9944;48.240;16.478;2022-12-10T21:25:11;98569.19;;;1.91;77.55
19594;BME280;9944;48.240;16.478;2022-12-10T21:29:14;98573.50;;;1.91;77.55
19594;BME280;9944;48.240;16.478;2022-12-10T21:33:20;98582.22;;;1.94;77.20
19594;BME280;9944;48.240;16.478;2022-12-10T21:37:24;98580.41;;;1.89;76.82
19594;BME280;9944;48.240;16.478;2022-12-10T21:41:28;98581.25;;;1.85;77.01
19594;BME280;9944;48.240;16.478;2022-12-10T21:45:50;98561.31;;;1.88;77.28
19594;BME280;9944;48.240;16.478;2022-12-10T21:49:53;98570.78;;;1.82;76.92
19594;BME280;9944;48.240;16.478;2022-12-10T21:53:58;98563.91;;;1.84;77.22
19594;BME280;9944;48.240;16.478;2022-12-10T21:58:02;98578.59;;;1.82;77.33
19594;BME280;9944;48.240;16.478;2022-12-10T22:02:07;98577.78;;;1.84;77.31